sensor_id;sensor_type;location;lat;lon;timestamp;temperature;humidity
71184;DHT22;58887;51.980;4.464;2022-08-19T00:02:24;18.96;80.98
71184;DHT22;58887;51.980;4.464;2022-08-19T00:04:49;18.90;81.01
71184;DHT22;58887;51.980;4.464;2022-08-19T00:07:19;18.91;81.25
71184;DHT22;58887;51.980;4.464;2022-08-19T00:09:44;18.91;81.82
71184;DHT22;58887;51.980;4.464;2022-08-19T00:12:11;18.94;81.63
71184;DHT22;58887;51.980;4.464;2022-08-19T00:14:37;18.98;81.34
71184;DHT22;58887;51.980;4.464;2022-08-19T00:17:04;18.94;80.77
71184;DHT22;58887;51.980;4.464;2022-08-19T00:19:30;18.93;80.49
71184;DHT22;58887;51.980;4.464;2022-08-19T00:21:55;18.90;81.09
71184;DHT22;58887;51.980;4.464;2022-08-19T00:24:21;18.86;81.08
71184;DHT22;58887;51.980;4.464;2022-08-19T00:26:47;18.86;80.88
71184;DHT22;58887;51.980;4.464;2022-08-19T00:29:15;18.80;80.70
71184;DHT22;58887;51.980;4.464;2022-08-19T00:31:42;18.79;81.47
71184;DHT22;58887;51.980;4.464;2022-08-19T00:34:08;18.84;81.28
71184;DHT22;58887;51.980;4.464;2022-08-19T00:36:34;18.80;81.73
71184;DHT22;58887;51.980;4.464;2022-08-19T00:39:00;18.90;81.82
71184;DHT22;58887;51.980;4.464;2022-08-19T00:41:26;18.91;81.66
71184;DHT22;58887;51.980;4.464;2022-08-19T00:44:15;18.94;81.28
71184;DHT22;58887;51.980;4.464;2022-08-19T00:46:44;18.93;81.57
71184;DHT22;58887;51.980;4.464;2022-08-19T00:49:19;18.90;81.47
71184;DHT22;58887;51.980;4.464;2022-08-19T00:51:50;18.89;81.62
71184;DHT22;58887;51.980;4.464;2022-08-19T00:54:19;18.87;80.91
71184;DHT22;58887;51.980;4.464;2022-08-19T00:56:45;18.87;81.09
71184;DHT22;58887;51.980;4.464;2022-08-19T00:59:12;18.84;81.72
71184;DHT22;58887;51.980;4.464;2022-08-19T01:01:42;18.87;81.44
71184;DHT22;58887;51.980;4.464;2022-08-19T01:04:08;18.83;81.42
71184;DHT22;58887;51.980;4.464;2022-08-19T01:06:36;18.77;81.72
71184;DHT22;58887;51.980;4.464;2022-08-19T01:09:03;18.80;81.64
71184;DHT22;58887;51.980;4.464;2022-08-19T01:11:31;18.73;81.97
71184;DHT22;58887;51.980;4.464;2022-08-19T01:13:58;18.76;81.64
71184;DHT22;58887;51.980;4.464;2022-08-19T01:16:27;18.73;81.49
71184;DHT22;58887;51.980;4.464;2022-08-19T01:18:54;18.73;81.60
71184;DHT22;58887;51.980;4.464;2022-08-19T01:23:53;18.64;81.90
71184;DHT22;58887;51.980;4.464;2022-08-19T01:26:21;18.60;81.84
71184;DHT22;58887;51.980;4.464;2022-08-19T01:28:50;18.60;81.14
71184;DHT22;58887;51.980;4.464;2022-08-19T01:31:20;18.57;81.16
71184;DHT22;58887;51.980;4.464;2022-08-19T01:33:48;18.52;81.05
71184;DHT22;58887;51.980;4.464;2022-08-19T01:36:24;18.55;82.09
71184;DHT22;58887;51.980;4.464;2022-08-19T01:38:51;18.50;82.09
71184;DHT22;58887;51.980;4.464;2022-08-19T01:41:18;18.43;82.39
71184;DHT22;58887;51.980;4.464;2022-08-19T01:43:43;18.45;82.31
71184;DHT22;58887;51.980;4.464;2022-08-19T01:46:10;18.48;82.42
71184;DHT22;58887;51.980;4.464;2022-08-19T01:48:41;18.49;82.35
71184;DHT22;58887;51.980;4.464;2022-08-19T01:51:09;18.52;82.57
71184;DHT22;58887;51.980;4.464;2022-08-19T01:53:35;18.53;82.92
71184;DHT22;58887;51.980;4.464;2022-08-19T01:56:02;18.57;82.70
71184;DHT22;58887;51.980;4.464;2022-08-19T01:58:33;18.60;82.37
71184;DHT22;58887;51.980;4.464;2022-08-19T02:01:02;18.56;82.00
71184;DHT22;58887;51.980;4.464;2022-08-19T02:03:27;18.52;81.75
71184;DHT22;58887;51.980;4.464;2022-08-19T02:05:56;18.50;81.14
71184;DHT22;58887;51.980;4.464;2022-08-19T02:08:23;18.45;82.20
71184;DHT22;58887;51.980;4.464;2022-08-19T02:10:49;18.45;82.23
71184;DHT22;58887;51.980;4.464;2022-08-19T02:13:15;18.45;82.15
71184;DHT22;58887;51.980;4.464;2022-08-19T02:15:41;18.40;82.51
71184;DHT22;58887;51.980;4.464;2022-08-19T02:18:07;18.45;82.77
71184;DHT22;58887;51.980;4.464;2022-08-19T02:20:33;18.55;83.96
71184;DHT22;58887;51.980;4.464;2022-08-19T02:22:59;18.61;83.71
71184;DHT22;58887;51.980;4.464;2022-08-19T02:25:27;18.76;83.99
71184;DHT22;58887;51.980;4.464;2022-08-19T02:27:52;18.79;83.65
71184;DHT22;58887;51.980;4.464;2022-08-19T02:30:19;18.87;83.68
71184;DHT22;58887;51.980;4.464;2022-08-19T02:32:45;19.00;83.77
71184;DHT22;58887;51.980;4.464;2022-08-19T02:35:12;19.00;83.42
71184;DHT22;58887;51.980;4.464;2022-08-19T02:37:38;19.01;83.53
71184;DHT22;58887;51.980;4.464;2022-08-19T02:40:22;19.04;83.59
71184;DHT22;58887;51.980;4.464;2022-08-19T02:42:47;19.04;83.84
71184;DHT22;58887;51.980;4.464;2022-08-19T02:45:14;19.10;83.66
71184;DHT22;58887;51.980;4.464;2022-08-19T02:47:40;19.08;83.31
71184;DHT22;58887;51.980;4.464;2022-08-19T02:50:07;19.06;83.25
71184;DHT22;58887;51.980;4.464;2022-08-19T02:52:33;19.08;83.21
71184;DHT22;58887;51.980;4.464;2022-08-19T02:58:22;19.19;83.24
71184;DHT22;58887;51.980;4.464;2022-08-19T03:00:52;19.11;83.49
71184;DHT22;58887;51.980;4.464;2022-08-19T03:03:19;19.14;83.38
71184;DHT22;58887;51.980;4.464;2022-08-19T03:05:45;19.12;83.05
71184;DHT22;58887;51.980;4.464;2022-08-19T03:08:12;19.08;83.06
71184;DHT22;58887;51.980;4.464;2022-08-19T03:10:43;19.00;82.68
71184;DHT22;58887;51.980;4.464;2022-08-19T03:13:11;18.94;82.49
71184;DHT22;58887;51.980;4.464;2022-08-19T03:15:40;18.90;82.58
71184;DHT22;58887;51.980;4.464;2022-08-19T03:18:06;18.86;83.52
71184;DHT22;58887;51.980;4.464;2022-08-19T03:20:31;18.86;83.42
71184;DHT22;58887;51.980;4.464;2022-08-19T03:22:58;18.90;83.52
71184;DHT22;58887;51.980;4.464;2022-08-19T03:25:23;18.89;83.21
71184;DHT22;58887;51.980;4.464;2022-08-19T03:27:49;18.80;83.28
71184;DHT22;58887;51.980;4.464;2022-08-19T03:30:15;18.77;83.32
71184;DHT22;58887;51.980;4.464;2022-08-19T03:32:40;18.73;83.38
71184;DHT22;58887;51.980;4.464;2022-08-19T03:35:06;18.73;83.28
71184;DHT22;58887;51.980;4.464;2022-08-19T03:37:32;18.66;83.17
71184;DHT22;58887;51.980;4.464;2022-08-19T03:39:57;18.61;83.58
71184;DHT22;58887;51.980;4.464;2022-08-19T03:42:23;18.60;83.64
71184;DHT22;58887;51.980;4.464;2022-08-19T03:44:48;18.60;83.89
71184;DHT22;58887;51.980;4.464;2022-08-19T03:47:14;18.69;84.67
71184;DHT22;58887;51.980;4.464;2022-08-19T03:49:40;18.73;84.79
71184;DHT22;58887;51.980;4.464;2022-08-19T03:52:06;18.86;84.78
71184;DHT22;58887;51.980;4.464;2022-08-19T03:54:33;18.93;84.60
71184;DHT22;58887;51.980;4.464;2022-08-19T03:56:58;18.93;84.59
71184;DHT22;58887;51.980;4.464;2022-08-19T03:59:31;19.06;84.63
71184;DHT22;58887;51.980;4.464;2022-08-19T04:02:02;19.00;84.92
71184;DHT22;58887;51.980;4.464;2022-08-19T04:04:28;18.90;85.24
71184;DHT22;58887;51.980;4.464;2022-08-19T04:06:54;18.91;85.18
71184;DHT22;58887;51.980;4.464;2022-08-19T04:09:20;19.03;84.85
71184;DHT22;58887;51.980;4.464;2022-08-19T04:11:49;19.01;85.03
71184;DHT22;58887;51.980;4.464;2022-08-19T04:14:17;19.12;84.84
71184;DHT22;58887;51.980;4.464;2022-08-19T04:16:44;19.11;84.79
71184;DHT22;58887;51.980;4.464;2022-08-19T04:19:11;19.06;85.09
71184;DHT22;58887;51.980;4.464;2022-08-19T04:21:37;19.10;85.25
71184;DHT22;58887;51.980;4.464;2022-08-19T04:24:03;19.17;85.16
71184;DHT22;58887;51.980;4.464;2022-08-19T04:26:32;19.19;85.26
71184;DHT22;58887;51.980;4.464;2022-08-19T04:29:00;19.22;85.36
71184;DHT22;58887;51.980;4.464;2022-08-19T04:31:28;19.27;85.34
71184;DHT22;58887;51.980;4.464;2022-08-19T04:33:57;19.28;85.41
71184;DHT22;58887;51.980;4.464;2022-08-19T04:36:27;19.36;85.16
71184;DHT22;58887;51.980;4.464;2022-08-19T04:38:55;19.38;85.11
71184;DHT22;58887;51.980;4.464;2022-08-19T04:41:21;19.42;85.20
71184;DHT22;58887;51.980;4.464;2022-08-19T04:44:06;19.48;84.74
71184;DHT22;58887;51.980;4.464;2022-08-19T04:46:32;19.54;84.68
71184;DHT22;58887;51.980;4.464;2022-08-19T04:49:03;19.61;84.85
71184;DHT22;58887;51.980;4.464;2022-08-19T04:51:31;19.59;84.76
71184;DHT22;58887;51.980;4.464;2022-08-19T04:53:57;19.54;85.13
71184;DHT22;58887;51.980;4.464;2022-08-19T04:56:23;19.59;84.89
71184;DHT22;58887;51.980;4.464;2022-08-19T04:58:51;19.52;85.21
71184;DHT22;58887;51.980;4.464;2022-08-19T05:01:21;19.62;84.99
71184;DHT22;58887;51.980;4.464;2022-08-19T05:03:48;19.68;84.94
71184;DHT22;58887;51.980;4.464;2022-08-19T05:06:17;19.70;85.00
71184;DHT22;58887;51.980;4.464;2022-08-19T05:08:43;19.73;84.67
71184;DHT22;58887;51.980;4.464;2022-08-19T05:11:22;19.86;84.46
71184;DHT22;58887;51.980;4.464;2022-08-19T05:13:49;19.86;84.30
71184;DHT22;58887;51.980;4.464;2022-08-19T05:16:16;19.96;84.16
71184;DHT22;58887;51.980;4.464;2022-08-19T05:18:43;19.90;84.10
71184;DHT22;58887;51.980;4.464;2022-08-19T05:21:29;20.01;84.03
71184;DHT22;58887;51.980;4.464;2022-08-19T05:24:20;20.06;83.87
71184;DHT22;58887;51.980;4.464;2022-08-19T05:26:48;20.09;83.67
71184;DHT22;58887;51.980;4.464;2022-08-19T05:29:17;20.13;83.72
71184;DHT22;58887;51.980;4.464;2022-08-19T05:31:43;20.18;83.71
71184;DHT22;58887;51.980;4.464;2022-08-19T05:34:10;20.17;83.65
71184;DHT22;58887;51.980;4.464;2022-08-19T05:36:39;20.17;83.59
71184;DHT22;58887;51.980;4.464;2022-08-19T05:39:07;20.16;83.72
71184;DHT22;58887;51.980;4.464;2022-08-19T05:41:32;20.20;83.69
71184;DHT22;58887;51.980;4.464;2022-08-19T05:44:04;20.21;83.32
71184;DHT22;58887;51.980;4.464;2022-08-19T05:46:36;20.21;83.42
71184;DHT22;58887;51.980;4.464;2022-08-19T05:49:06;20.06;84.18
71184;DHT22;58887;51.980;4.464;2022-08-19T05:51:33;20.13;84.17
71184;DHT22;58887;51.980;4.464;2022-08-19T05:54:00;20.23;83.47
71184;DHT22;58887;51.980;4.464;2022-08-19T05:56:27;20.41;82.89
71184;DHT22;58887;51.980;4.464;2022-08-19T05:58:52;20.52;82.81
71184;DHT22;58887;51.980;4.464;2022-08-19T06:01:20;20.54;82.36
71184;DHT22;58887;51.980;4.464;2022-08-19T06:03:45;20.55;82.41
71184;DHT22;58887;51.980;4.464;2022-08-19T06:06:15;20.51;82.68
71184;DHT22;58887;51.980;4.464;2022-08-19T06:08:41;20.57;82.35
71184;DHT22;58887;51.980;4.464;2022-08-19T06:11:31;20.58;82.32
71184;DHT22;58887;51.980;4.464;2022-08-19T06:14:01;20.64;82.13
71184;DHT22;58887;51.980;4.464;2022-08-19T06:16:27;20.69;82.26
71184;DHT22;58887;51.980;4.464;2022-08-19T06:18:55;20.74;82.14
71184;DHT22;58887;51.980;4.464;2022-08-19T06:21:24;20.71;82.36
71184;DHT22;58887;51.980;4.464;2022-08-19T06:23:51;20.71;82.14
71184;DHT22;58887;51.980;4.464;2022-08-19T06:26:18;20.78;82.07
71184;DHT22;58887;51.980;4.464;2022-08-19T06:28:45;20.64;82.56
71184;DHT22;58887;51.980;4.464;2022-08-19T06:31:16;20.65;82.66
71184;DHT22;58887;51.980;4.464;2022-08-19T06:33:44;20.84;82.38
71184;DHT22;58887;51.980;4.464;2022-08-19T06:36:29;20.86;82.09
71184;DHT22;58887;51.980;4.464;2022-08-19T06:39:05;20.88;81.98
71184;DHT22;58887;51.980;4.464;2022-08-19T06:41:33;21.02;81.90
71184;DHT22;58887;51.980;4.464;2022-08-19T06:43:59;21.19;81.24
71184;DHT22;58887;51.980;4.464;2022-08-19T06:46:25;21.40;80.68
71184;DHT22;58887;51.980;4.464;2022-08-19T06:48:52;21.49;80.23
71184;DHT22;58887;51.980;4.464;2022-08-19T06:51:19;21.29;80.68
71184;DHT22;58887;51.980;4.464;2022-08-19T06:53:50;21.12;81.19
71184;DHT22;58887;51.980;4.464;2022-08-19T06:56:23;21.22;81.05
71184;DHT22;58887;51.980;4.464;2022-08-19T06:58:51;21.22;80.73
71184;DHT22;58887;51.980;4.464;2022-08-19T07:01:19;21.32;80.88
71184;DHT22;58887;51.980;4.464;2022-08-19T07:03:45;21.47;80.50
71184;DHT22;58887;51.980;4.464;2022-08-19T07:06:16;21.57;80.19
71184;DHT22;58887;51.980;4.464;2022-08-19T07:08:44;21.64;79.95
71184;DHT22;58887;51.980;4.464;2022-08-19T07:11:16;21.81;79.57
71184;DHT22;58887;51.980;4.464;2022-08-19T07:13:46;21.84;79.40
71184;DHT22;58887;51.980;4.464;2022-08-19T07:16:16;21.93;79.54
71184;DHT22;58887;51.980;4.464;2022-08-19T07:18:42;22.18;78.48
71184;DHT22;58887;51.980;4.464;2022-08-19T07:21:23;22.36;78.02
71184;DHT22;58887;51.980;4.464;2022-08-19T07:23:49;22.25;77.80
71184;DHT22;58887;51.980;4.464;2022-08-19T07:26:22;22.22;78.00
71184;DHT22;58887;51.980;4.464;2022-08-19T07:28:48;22.21;78.06
71184;DHT22;58887;51.980;4.464;2022-08-19T07:31:17;22.22;78.04
71184;DHT22;58887;51.980;4.464;2022-08-19T07:33:45;22.26;78.19
71184;DHT22;58887;51.980;4.464;2022-08-19T07:36:13;22.08;78.55
71184;DHT22;58887;51.980;4.464;2022-08-19T07:38:41;22.01;78.76
71184;DHT22;58887;51.980;4.464;2022-08-19T07:41:10;22.02;78.51
71184;DHT22;58887;51.980;4.464;2022-08-19T07:43:37;22.09;78.71
71184;DHT22;58887;51.980;4.464;2022-08-19T07:46:06;22.22;78.17
71184;DHT22;58887;51.980;4.464;2022-08-19T07:48:32;22.21;78.08
71184;DHT22;58887;51.980;4.464;2022-08-19T07:51:01;22.25;77.77
71184;DHT22;58887;51.980;4.464;2022-08-19T07:53:28;22.21;77.71
71184;DHT22;58887;51.980;4.464;2022-08-19T07:55:55;22.15;78.41
71184;DHT22;58887;51.980;4.464;2022-08-19T07:58:25;22.32;77.91
71184;DHT22;58887;51.980;4.464;2022-08-19T08:00:50;22.43;77.42
71184;DHT22;58887;51.980;4.464;2022-08-19T08:03:20;22.45;76.99
71184;DHT22;58887;51.980;4.464;2022-08-19T08:05:46;22.56;77.29
71184;DHT22;58887;51.980;4.464;2022-08-19T08:08:31;22.77;76.27
71184;DHT22;58887;51.980;4.464;2022-08-19T08:11:18;22.84;76.25
71184;DHT22;58887;51.980;4.464;2022-08-19T08:13:45;23.00;76.00
71184;DHT22;58887;51.980;4.464;2022-08-19T08:16:11;23.10;75.46
71184;DHT22;58887;51.980;4.464;2022-08-19T08:18:36;23.44;74.26
71184;DHT22;58887;51.980;4.464;2022-08-19T08:21:07;23.38;74.34
71184;DHT22;58887;51.980;4.464;2022-08-19T08:23:34;23.42;74.06
71184;DHT22;58887;51.980;4.464;2022-08-19T08:25:59;23.44;73.61
71184;DHT22;58887;51.980;4.464;2022-08-19T08:28:26;23.35;74.14
71184;DHT22;58887;51.980;4.464;2022-08-19T08:30:52;23.44;74.08
71184;DHT22;58887;51.980;4.464;2022-08-19T08:33:21;23.45;74.11
71184;DHT22;58887;51.980;4.464;2022-08-19T08:35:48;23.55;73.58
71184;DHT22;58887;51.980;4.464;2022-08-19T08:38:14;23.42;73.36
71184;DHT22;58887;51.980;4.464;2022-08-19T08:40:47;23.22;73.91
71184;DHT22;58887;51.980;4.464;2022-08-19T08:43:22;23.08;74.78
71184;DHT22;58887;51.980;4.464;2022-08-19T08:48:57;23.89;72.00
71184;DHT22;58887;51.980;4.464;2022-08-19T08:51:48;24.08;71.56
71184;DHT22;58887;51.980;4.464;2022-08-19T08:54:20;24.47;69.76
71184;DHT22;58887;51.980;4.464;2022-08-19T08:56:53;24.96;68.91
71184;DHT22;58887;51.980;4.464;2022-08-19T08:59:24;25.05;67.52
71184;DHT22;58887;51.980;4.464;2022-08-19T09:01:58;24.89;67.73
71184;DHT22;58887;51.980;4.464;2022-08-19T09:04:23;24.95;67.85
71184;DHT22;58887;51.980;4.464;2022-08-19T09:09:46;24.67;69.02
71184;DHT22;58887;51.980;4.464;2022-08-19T09:15:03;25.77;65.46
71184;DHT22;58887;51.980;4.464;2022-08-19T09:17:30;25.29;66.66
71184;DHT22;58887;51.980;4.464;2022-08-19T09:20:00;24.54;68.67
71184;DHT22;58887;51.980;4.464;2022-08-19T09:22:31;24.43;69.16
71184;DHT22;58887;51.980;4.464;2022-08-19T09:24:57;24.36;68.78
71184;DHT22;58887;51.980;4.464;2022-08-19T09:27:23;24.12;68.95
71184;DHT22;58887;51.980;4.464;2022-08-19T09:29:50;24.13;69.04
71184;DHT22;58887;51.980;4.464;2022-08-19T09:32:16;23.88;69.40
71184;DHT22;58887;51.980;4.464;2022-08-19T09:34:43;23.66;70.20
71184;DHT22;58887;51.980;4.464;2022-08-19T09:37:09;23.55;71.04
71184;DHT22;58887;51.980;4.464;2022-08-19T09:39:35;23.50;71.73
71184;DHT22;58887;51.980;4.464;2022-08-19T09:42:00;23.59;70.44
71184;DHT22;58887;51.980;4.464;2022-08-19T09:44:26;23.47;70.52
71184;DHT22;58887;51.980;4.464;2022-08-19T09:46:51;23.44;70.86
71184;DHT22;58887;51.980;4.464;2022-08-19T09:49:18;23.58;70.54
71184;DHT22;58887;51.980;4.464;2022-08-19T09:51:50;23.86;70.00
71184;DHT22;58887;51.980;4.464;2022-08-19T09:54:17;24.16;68.72
71184;DHT22;58887;51.980;4.464;2022-08-19T09:56:43;24.44;67.47
71184;DHT22;58887;51.980;4.464;2022-08-19T09:59:09;24.53;66.58
71184;DHT22;58887;51.980;4.464;2022-08-19T10:01:37;24.68;65.53
71184;DHT22;58887;51.980;4.464;2022-08-19T10:04:03;24.95;64.38
71184;DHT22;58887;51.980;4.464;2022-08-19T10:06:34;25.84;63.25
71184;DHT22;58887;51.980;4.464;2022-08-19T10:09:01;26.41;61.10
71184;DHT22;58887;51.980;4.464;2022-08-19T10:11:28;27.07;59.02
71184;DHT22;58887;51.980;4.464;2022-08-19T10:13:54;27.48;58.90
71184;DHT22;58887;51.980;4.464;2022-08-19T10:16:22;27.13;59.62
71184;DHT22;58887;51.980;4.464;2022-08-19T10:18:49;27.00;58.98
71184;DHT22;58887;51.980;4.464;2022-08-19T10:21:21;27.31;57.34
71184;DHT22;58887;51.980;4.464;2022-08-19T10:23:50;26.92;58.50
71184;DHT22;58887;51.980;4.464;2022-08-19T10:26:22;26.51;58.66
71184;DHT22;58887;51.980;4.464;2022-08-19T10:28:49;25.91;59.57
71184;DHT22;58887;51.980;4.464;2022-08-19T10:31:24;25.35;62.40
71184;DHT22;58887;51.980;4.464;2022-08-19T10:33:51;25.42;62.74
71184;DHT22;58887;51.980;4.464;2022-08-19T10:36:22;25.35;63.10
71184;DHT22;58887;51.980;4.464;2022-08-19T10:38:51;25.37;62.77
71184;DHT22;58887;51.980;4.464;2022-08-19T10:41:21;24.84;64.04
71184;DHT22;58887;51.980;4.464;2022-08-19T10:43:55;24.75;65.18
71184;DHT22;58887;51.980;4.464;2022-08-19T10:46:22;24.41;65.18
71184;DHT22;58887;51.980;4.464;2022-08-19T10:48:49;24.48;65.86
71184;DHT22;58887;51.980;4.464;2022-08-19T10:51:16;24.54;65.71
71184;DHT22;58887;51.980;4.464;2022-08-19T10:54:01;25.07;64.65
71184;DHT22;58887;51.980;4.464;2022-08-19T10:56:28;25.26;63.77
71184;DHT22;58887;51.980;4.464;2022-08-19T10:59:14;25.16;63.81
71184;DHT22;58887;51.980;4.464;2022-08-19T11:01:43;24.89;65.33
71184;DHT22;58887;51.980;4.464;2022-08-19T11:04:09;25.05;64.96
71184;DHT22;58887;51.980;4.464;2022-08-19T11:06:40;24.88;65.70
71184;DHT22;58887;51.980;4.464;2022-08-19T11:09:07;25.01;67.10
71184;DHT22;58887;51.980;4.464;2022-08-19T11:11:34;25.11;66.24
71184;DHT22;58887;51.980;4.464;2022-08-19T11:14:12;25.15;66.74
71184;DHT22;58887;51.980;4.464;2022-08-19T11:16:40;25.25;66.16
71184;DHT22;58887;51.980;4.464;2022-08-19T11:19:08;25.19;66.36
71184;DHT22;58887;51.980;4.464;2022-08-19T11:21:39;25.01;66.03
71184;DHT22;58887;51.980;4.464;2022-08-19T11:24:09;24.71;65.53
71184;DHT22;58887;51.980;4.464;2022-08-19T11:26:37;24.78;66.69
71184;DHT22;58887;51.980;4.464;2022-08-19T11:29:04;24.85;65.70
71184;DHT22;58887;51.980;4.464;2022-08-19T11:31:34;25.32;65.44
71184;DHT22;58887;51.980;4.464;2022-08-19T11:34:03;25.76;62.26
71184;DHT22;58887;51.980;4.464;2022-08-19T11:36:30;25.69;62.39
71184;DHT22;58887;51.980;4.464;2022-08-19T11:38:56;25.63;62.40
71184;DHT22;58887;51.980;4.464;2022-08-19T11:41:23;25.25;63.62
71184;DHT22;58887;51.980;4.464;2022-08-19T11:43:51;25.25;64.57
71184;DHT22;58887;51.980;4.464;2022-08-19T11:46:18;25.30;64.82
71184;DHT22;58887;51.980;4.464;2022-08-19T11:48:43;25.33;64.29
71184;DHT22;58887;51.980;4.464;2022-08-19T11:51:12;25.42;64.60
71184;DHT22;58887;51.980;4.464;2022-08-19T11:53:38;25.45;65.08
71184;DHT22;58887;51.980;4.464;2022-08-19T11:56:06;25.49;65.40
71184;DHT22;58887;51.980;4.464;2022-08-19T11:58:33;26.09;64.62
71184;DHT22;58887;51.980;4.464;2022-08-19T12:00:59;26.90;63.16
71184;DHT22;58887;51.980;4.464;2022-08-19T12:03:26;27.48;60.96
71184;DHT22;58887;51.980;4.464;2022-08-19T12:05:52;27.75;59.08
71184;DHT22;58887;51.980;4.464;2022-08-19T12:08:18;27.59;60.04
71184;DHT22;58887;51.980;4.464;2022-08-19T12:10:44;27.50;60.24
71184;DHT22;58887;51.980;4.464;2022-08-19T12:13:12;26.90;61.21
71184;DHT22;58887;51.980;4.464;2022-08-19T12:15:44;26.60;62.61
71184;DHT22;58887;51.980;4.464;2022-08-19T12:18:11;26.53;63.01
71184;DHT22;58887;51.980;4.464;2022-08-19T12:20:38;26.80;61.65
71184;DHT22;58887;51.980;4.464;2022-08-19T12:23:06;27.10;60.98
71184;DHT22;58887;51.980;4.464;2022-08-19T12:25:32;27.06;62.98
71184;DHT22;58887;51.980;4.464;2022-08-19T12:27:58;27.03;61.67
71184;DHT22;58887;51.980;4.464;2022-08-19T12:30:24;26.87;61.80
71184;DHT22;58887;51.980;4.464;2022-08-19T12:32:51;26.52;62.37
71184;DHT22;58887;51.980;4.464;2022-08-19T12:35:17;26.32;63.30
71184;DHT22;58887;51.980;4.464;2022-08-19T12:37:46;26.22;65.23
71184;DHT22;58887;51.980;4.464;2022-08-19T12:40:13;26.36;64.00
71184;DHT22;58887;51.980;4.464;2022-08-19T12:42:40;26.66;63.05
71184;DHT22;58887;51.980;4.464;2022-08-19T12:45:09;27.34;61.01
71184;DHT22;58887;51.980;4.464;2022-08-19T12:47:35;27.86;59.40
71184;DHT22;58887;51.980;4.464;2022-08-19T12:50:01;27.93;58.54
71184;DHT22;58887;51.980;4.464;2022-08-19T12:52:27;27.18;60.43
71184;DHT22;58887;51.980;4.464;2022-08-19T12:54:56;26.93;62.14
71184;DHT22;58887;51.980;4.464;2022-08-19T12:57:26;26.51;62.95
71184;DHT22;58887;51.980;4.464;2022-08-19T12:59:53;26.38;64.55
71184;DHT22;58887;51.980;4.464;2022-08-19T13:02:19;26.57;63.07
71184;DHT22;58887;51.980;4.464;2022-08-19T13:04:45;26.94;61.23
71184;DHT22;58887;51.980;4.464;2022-08-19T13:07:11;26.72;60.77
71184;DHT22;58887;51.980;4.464;2022-08-19T13:09:37;26.63;61.58
71184;DHT22;58887;51.980;4.464;2022-08-19T13:12:03;26.63;62.99
71184;DHT22;58887;51.980;4.464;2022-08-19T13:14:34;26.48;62.90
71184;DHT22;58887;51.980;4.464;2022-08-19T13:16:59;26.09;61.41
71184;DHT22;58887;51.980;4.464;2022-08-19T13:19:25;25.98;62.23
71184;DHT22;58887;51.980;4.464;2022-08-19T13:21:52;25.90;62.25
71184;DHT22;58887;51.980;4.464;2022-08-19T13:24:19;26.34;61.95
71184;DHT22;58887;51.980;4.464;2022-08-19T13:26:45;26.29;61.58
71184;DHT22;58887;51.980;4.464;2022-08-19T13:29:10;26.48;60.84
71184;DHT22;58887;51.980;4.464;2022-08-19T13:31:54;27.48;60.02
71184;DHT22;58887;51.980;4.464;2022-08-19T13:34:38;27.57;57.51
71184;DHT22;58887;51.980;4.464;2022-08-19T13:37:05;26.85;58.10
71184;DHT22;58887;51.980;4.464;2022-08-19T13:39:34;26.60;60.33
71184;DHT22;58887;51.980;4.464;2022-08-19T13:42:01;26.73;59.47
71184;DHT22;58887;51.980;4.464;2022-08-19T13:44:28;27.15;58.06
71184;DHT22;58887;51.980;4.464;2022-08-19T13:47:02;27.27;57.45
71184;DHT22;58887;51.980;4.464;2022-08-19T13:49:35;27.33;57.50
71184;DHT22;58887;51.980;4.464;2022-08-19T13:52:03;27.11;57.46
71184;DHT22;58887;51.980;4.464;2022-08-19T13:54:32;27.00;58.31
71184;DHT22;58887;51.980;4.464;2022-08-19T13:56:58;26.51;59.87
71184;DHT22;58887;51.980;4.464;2022-08-19T13:59:23;26.31;60.87
71184;DHT22;58887;51.980;4.464;2022-08-19T14:01:49;26.13;61.21
71184;DHT22;58887;51.980;4.464;2022-08-19T14:04:15;25.83;62.03
71184;DHT22;58887;51.980;4.464;2022-08-19T14:06:40;25.71;62.23
71184;DHT22;58887;51.980;4.464;2022-08-19T14:09:06;26.63;59.35
71184;DHT22;58887;51.980;4.464;2022-08-19T14:11:32;26.25;60.51
71184;DHT22;58887;51.980;4.464;2022-08-19T14:13:58;25.56;62.91
71184;DHT22;58887;51.980;4.464;2022-08-19T14:16:24;25.43;63.97
71184;DHT22;58887;51.980;4.464;2022-08-19T14:18:50;25.04;64.57
71184;DHT22;58887;51.980;4.464;2022-08-19T14:21:20;25.08;64.65
71184;DHT22;58887;51.980;4.464;2022-08-19T14:23:47;25.16;65.59
71184;DHT22;58887;51.980;4.464;2022-08-19T14:26:15;24.89;67.51
71184;DHT22;58887;51.980;4.464;2022-08-19T14:28:43;24.74;68.80
71184;DHT22;58887;51.980;4.464;2022-08-19T14:31:14;24.51;69.12
71184;DHT22;58887;51.980;4.464;2022-08-19T14:33:43;24.31;70.00
71184;DHT22;58887;51.980;4.464;2022-08-19T14:36:09;24.56;69.73
71184;DHT22;58887;51.980;4.464;2022-08-19T14:38:34;24.65;69.83
71184;DHT22;58887;51.980;4.464;2022-08-19T14:41:24;24.74;69.65
71184;DHT22;58887;51.980;4.464;2022-08-19T14:43:51;24.74;69.46
71184;DHT22;58887;51.980;4.464;2022-08-19T14:46:21;24.53;69.93
71184;DHT22;58887;51.980;4.464;2022-08-19T14:48:47;24.40;70.35
71184;DHT22;58887;51.980;4.464;2022-08-19T14:51:13;24.39;70.52
71184;DHT22;58887;51.980;4.464;2022-08-19T14:53:40;24.27;71.07
71184;DHT22;58887;51.980;4.464;2022-08-19T14:56:14;24.41;70.79
71184;DHT22;58887;51.980;4.464;2022-08-19T14:58:41;24.50;70.51
71184;DHT22;58887;51.980;4.464;2022-08-19T15:01:08;24.44;70.61
71184;DHT22;58887;51.980;4.464;2022-08-19T15:03:33;24.36;70.59
71184;DHT22;58887;51.980;4.464;2022-08-19T15:06:01;24.20;71.47
71184;DHT22;58887;51.980;4.464;2022-08-19T15:08:29;24.41;71.50
71184;DHT22;58887;51.980;4.464;2022-08-19T15:10:55;24.34;70.80
71184;DHT22;58887;51.980;4.464;2022-08-19T15:13:22;24.31;70.68
71184;DHT22;58887;51.980;4.464;2022-08-19T15:15:50;24.33;70.87
71184;DHT22;58887;51.980;4.464;2022-08-19T15:18:17;24.20;71.35
71184;DHT22;58887;51.980;4.464;2022-08-19T15:20:43;23.89;72.66
71184;DHT22;58887;51.980;4.464;2022-08-19T15:23:10;23.44;74.11
71184;DHT22;58887;51.980;4.464;2022-08-19T15:25:36;23.27;76.04
71184;DHT22;58887;51.980;4.464;2022-08-19T15:28:02;23.30;77.76
71184;DHT22;58887;51.980;4.464;2022-08-19T15:30:28;23.21;78.14
71184;DHT22;58887;51.980;4.464;2022-08-19T15:32:56;23.27;78.73
71184;DHT22;58887;51.980;4.464;2022-08-19T15:35:23;23.24;76.80
71184;DHT22;58887;51.980;4.464;2022-08-19T15:37:51;23.25;78.25
71184;DHT22;58887;51.980;4.464;2022-08-19T15:40:18;23.38;76.82
71184;DHT22;58887;51.980;4.464;2022-08-19T15:42:43;23.37;76.75
71184;DHT22;58887;51.980;4.464;2022-08-19T15:45:11;23.32;76.57
71184;DHT22;58887;51.980;4.464;2022-08-19T15:47:39;23.30;76.43
71184;DHT22;58887;51.980;4.464;2022-08-19T15:50:07;23.18;76.69
71184;DHT22;58887;51.980;4.464;2022-08-19T15:52:33;23.21;76.92